sensor_id;sensor_type;location;lat;lon;timestamp;temperature;humidity
15184;DHT22;7693;49.266;7.104;2023-09-19T05:03:50;14.70;99.90
15184;DHT22;7693;49.266;7.104;2023-09-19T05:06:21;14.70;99.90
15184;DHT22;7693;49.266;7.104;2023-09-19T05:08:50;14.70;99.90
15184;DHT22;7693;49.266;7.104;2023-09-19T05:11:21;14.70;99.90
15184;DHT22;7693;49.266;7.104;2023-09-19T05:13:50;14.70;99.90
15184;DHT22;7693;49.266;7.104;2023-09-19T05:16:16;14.80;99.90
15184;DHT22;7693;49.266;7.104;2023-09-19T05:18:42;14.70;99.90
15184;DHT22;7693;49.266;7.104;2023-09-19T05:21:07;14.70;99.90
15184;DHT22;7693;49.266;7.104;2023-09-19T05:23:33;14.80;99.90
15184;DHT22;7693;49.266;7.104;2023-09-19T05:25:59;14.80;99.90
15184;DHT22;7693;49.266;7.104;2023-09-19T05:28:26;14.70;99.90
15184;DHT22;7693;49.266;7.104;2023-09-19T05:30:52;14.80;99.90
15184;DHT22;7693;49.266;7.104;2023-09-19T05:33:18;14.80;99.90
15184;DHT22;7693;49.266;7.104;2023-09-19T05:35:44;14.80;99.90
15184;DHT22;7693;49.266;7.104;2023-09-19T05:38:12;14.80;99.90
15184;DHT22;7693;49.266;7.104;2023-09-19T05:40:39;14.80;99.90
15184;DHT22;7693;49.266;7.104;2023-09-19T05:43:07;14.80;99.90
15184;DHT22;7693;49.266;7.104;2023-09-19T05:45:33;14.80;99.90
15184;DHT22;7693;49.266;7.104;2023-09-19T05:48:11;14.80;99.90
15184;DHT22;7693;49.266;7.104;2023-09-19T05:50:37;14.70;99.90
15184;DHT22;7693;49.266;7.104;2023-09-19T05:53:03;14.80;99.90
15184;DHT22;7693;49.266;7.104;2023-09-19T05:55:30;14.80;99.90
15184;DHT22;7693;49.266;7.104;2023-09-19T05:57:55;14.80;99.90
15184;DHT22;7693;49.266;7.104;2023-09-19T06:00:22;14.80;99.90
15184;DHT22;7693;49.266;7.104;2023-09-19T06:02:52;14.80;99.90
15184;DHT22;7693;49.266;7.104;2023-09-19T06:05:18;14.90;99.90
15184;DHT22;7693;49.266;7.104;2023-09-19T06:07:44;14.90;99.90
15184;DHT22;7693;49.266;7.104;2023-09-19T06:10:10;14.90;99.90
15184;DHT22;7693;49.266;7.104;2023-09-19T06:12:42;14.90;99.90
15184;DHT22;7693;49.266;7.104;2023-09-19T06:15:13;14.90;99.90
15184;DHT22;7693;49.266;7.104;2023-09-19T06:17:48;15.00;99.90
15184;DHT22;7693;49.266;7.104;2023-09-19T06:20:14;15.00;99.90
15184;DHT22;7693;49.266;7.104;2023-09-19T06:22:44;14.90;99.90
15184;DHT22;7693;49.266;7.104;2023-09-19T06:25:11;15.00;99.90
15184;DHT22;7693;49.266;7.104;2023-09-19T06:27:40;15.00;99.90
15184;DHT22;7693;49.266;7.104;2023-09-19T06:30:10;15.00;99.90
15184;DHT22;7693;49.266;7.104;2023-09-19T06:32:37;15.00;99.90
15184;DHT22;7693;49.266;7.104;2023-09-19T06:35:03;15.00;99.90
15184;DHT22;7693;49.266;7.104;2023-09-19T06:37:29;15.00;99.90
15184;DHT22;7693;49.266;7.104;2023-09-19T06:39:54;15.00;99.90
15184;DHT22;7693;49.266;7.104;2023-09-19T06:42:21;15.00;99.90
15184;DHT22;7693;49.266;7.104;2023-09-19T06:44:48;15.00;99.90
15184;DHT22;7693;49.266;7.104;2023-09-19T06:47:14;15.00;99.90
15184;DHT22;7693;49.266;7.104;2023-09-19T06:49:41;15.10;99.90
15184;DHT22;7693;49.266;7.104;2023-09-19T06:52:09;15.10;99.90
15184;DHT22;7693;49.266;7.104;2023-09-19T06:54:35;15.10;99.90
15184;DHT22;7693;49.266;7.104;2023-09-19T06:57:01;15.20;99.90
15184;DHT22;7693;49.266;7.104;2023-09-19T06:59:27;15.20;99.90
15184;DHT22;7693;49.266;7.104;2023-09-19T07:01:52;15.20;99.90
15184;DHT22;7693;49.266;7.104;2023-09-19T07:04:18;15.20;99.90
15184;DHT22;7693;49.266;7.104;2023-09-19T07:06:50;15.20;99.90
15184;DHT22;7693;49.266;7.104;2023-09-19T07:09:16;15.30;99.90
15184;DHT22;7693;49.266;7.104;2023-09-19T07:11:42;15.30;99.90
15184;DHT22;7693;49.266;7.104;2023-09-19T07:14:08;15.30;99.90
15184;DHT22;7693;49.266;7.104;2023-09-19T07:16:37;15.40;99.90
15184;DHT22;7693;49.266;7.104;2023-09-19T07:19:04;15.40;99.90
15184;DHT22;7693;49.266;7.104;2023-09-19T07:21:30;15.40;99.90
15184;DHT22;7693;49.266;7.104;2023-09-19T07:23:56;15.40;99.90
15184;DHT22;7693;49.266;7.104;2023-09-19T07:26:21;15.50;99.90
15184;DHT22;7693;49.266;7.104;2023-09-19T07:28:47;15.50;99.90
15184;DHT22;7693;49.266;7.104;2023-09-19T07:31:12;15.60;99.90
15184;DHT22;7693;49.266;7.104;2023-09-19T07:33:39;15.60;99.90
15184;DHT22;7693;49.266;7.104;2023-09-19T07:36:05;15.60;99.90
15184;DHT22;7693;49.266;7.104;2023-09-19T07:38:31;15.70;99.90
15184;DHT22;7693;49.266;7.104;2023-09-19T07:41:00;15.80;99.90
15184;DHT22;7693;49.266;7.104;2023-09-19T07:43:27;15.80;99.90
15184;DHT22;7693;49.266;7.104;2023-09-19T07:45:53;15.80;99.90
15184;DHT22;7693;49.266;7.104;2023-09-19T07:48:19;15.90;99.90
15184;DHT22;7693;49.266;7.104;2023-09-19T07:50:44;16.00;99.90
15184;DHT22;7693;49.266;7.104;2023-09-19T07:53:10;16.00;99.90
15184;DHT22;7693;49.266;7.104;2023-09-19T07:55:39;16.10;99.90
15184;DHT22;7693;49.266;7.104;2023-09-19T07:58:06;16.20;99.90
15184;DHT22;7693;49.266;7.104;2023-09-19T08:00:32;16.20;99.90
15184;DHT22;7693;49.266;7.104;2023-09-19T08:03:00;16.30;99.90
15184;DHT22;7693;49.266;7.104;2023-09-19T08:05:26;16.50;99.90
15184;DHT22;7693;49.266;7.104;2023-09-19T08:07:53;16.40;99.90
15184;DHT22;7693;49.266;7.104;2023-09-19T08:10:19;16.50;99.90
15184;DHT22;7693;49.266;7.104;2023-09-19T08:12:47;16.40;99.90
15184;DHT22;7693;49.266;7.104;2023-09-19T08:15:14;16.30;99.90
15184;DHT22;7693;49.266;7.104;2023-09-19T08:17:40;16.30;99.90
15184;DHT22;7693;49.266;7.104;2023-09-19T08:20:07;16.30;99.90
15184;DHT22;7693;49.266;7.104;2023-09-19T08:22:32;16.40;99.90
15184;DHT22;7693;49.266;7.104;2023-09-19T08:24:58;16.40;99.90
15184;DHT22;7693;49.266;7.104;2023-09-19T08:27:24;16.40;99.90
15184;DHT22;7693;49.266;7.104;2023-09-19T08:29:53;16.40;99.90
15184;DHT22;7693;49.266;7.104;2023-09-19T08:32:19;16.40;99.90
15184;DHT22;7693;49.266;7.104;2023-09-19T08:34:50;16.50;99.90
15184;DHT22;7693;49.266;7.104;2023-09-19T08:37:15;16.50;99.90
15184;DHT22;7693;49.266;7.104;2023-09-19T08:39:44;16.50;99.90
15184;DHT22;7693;49.266;7.104;2023-09-19T08:42:10;16.50;99.90
15184;DHT22;7693;49.266;7.104;2023-09-19T08:44:37;16.50;99.90
15184;DHT22;7693;49.266;7.104;2023-09-19T08:47:15;16.60;99.90
15184;DHT22;7693;49.266;7.104;2023-09-19T08:50:03;16.70;99.90
15184;DHT22;7693;49.266;7.104;2023-09-19T08:52:36;16.80;99.90
15184;DHT22;7693;49.266;7.104;2023-09-19T08:55:06;16.80;99.90
15184;DHT22;7693;49.266;7.104;2023-09-19T08:57:36;16.90;99.90
15184;DHT22;7693;49.266;7.104;2023-09-19T09:00:05;17.10;99.90
15184;DHT22;7693;49.266;7.104;2023-09-19T09:02:39;17.20;99.90
15184;DHT22;7693;49.266;7.104;2023-09-19T09:05:11;17.30;99.90
15184;DHT22;7693;49.266;7.104;2023-09-19T09:07:40;17.20;99.90
15184;DHT22;7693;49.266;7.104;2023-09-19T09:10:06;17.30;99.90
15184;DHT22;7693;49.266;7.104;2023-09-19T09:12:33;17.30;99.90
15184;DHT22;7693;49.266;7.104;2023-09-19T09:15:02;17.40;99.90
15184;DHT22;7693;49.266;7.104;2023-09-19T09:17:29;17.40;99.90
15184;DHT22;7693;49.266;7.104;2023-09-19T09:19:55;17.30;99.90
15184;DHT22;7693;49.266;7.104;2023-09-19T09:22:21;17.30;99.90
15184;DHT22;7693;49.266;7.104;2023-09-19T09:27:19;17.30;99.90
15184;DHT22;7693;49.266;7.104;2023-09-19T09:29:47;17.40;99.90
15184;DHT22;7693;49.266;7.104;2023-09-19T09:32:28;17.50;99.90
15184;DHT22;7693;49.266;7.104;2023-09-19T09:34:59;17.50;99.90
15184;DHT22;7693;49.266;7.104;2023-09-19T09:37:25;17.60;99.90
15184;DHT22;7693;49.266;7.104;2023-09-19T09:39:59;17.50;99.90
15184;DHT22;7693;49.266;7.104;2023-09-19T09:42:44;17.50;99.90
15184;DHT22;7693;49.266;7.104;2023-09-19T09:45:25;17.50;99.90
15184;DHT22;7693;49.266;7.104;2023-09-19T09:48:00;17.50;99.90
15184;DHT22;7693;49.266;7.104;2023-09-19T09:50:35;17.50;99.90
15184;DHT22;7693;49.266;7.104;2023-09-19T09:56:06;17.70;99.90
15184;DHT22;7693;49.266;7.104;2023-09-19T09:58:36;17.80;99.90
15184;DHT22;7693;49.266;7.104;2023-09-19T12:21:40;20.00;99.90
15184;DHT22;7693;49.266;7.104;2023-09-19T12:24:11;20.10;99.90
15184;DHT22;7693;49.266;7.104;2023-09-19T12:26:43;20.00;99.90
15184;DHT22;7693;49.266;7.104;2023-09-19T12:34:27;20.20;99.90
15184;DHT22;7693;49.266;7.104;2023-09-19T12:37:13;20.30;99.90
15184;DHT22;7693;49.266;7.104;2023-09-19T12:39:48;20.40;99.90
15184;DHT22;7693;49.266;7.104;2023-09-19T12:42:16;20.50;99.90
15184;DHT22;7693;49.266;7.104;2023-09-19T12:44:46;20.60;99.90
15184;DHT22;7693;49.266;7.104;2023-09-19T12:47:16;20.60;99.90
15184;DHT22;7693;49.266;7.104;2023-09-19T12:50:07;20.60;99.90
15184;DHT22;7693;49.266;7.104;2023-09-19T12:52:41;20.70;99.90
15184;DHT22;7693;49.266;7.104;2023-09-19T12:55:07;20.70;99.90
15184;DHT22;7693;49.266;7.104;2023-09-19T12:57:34;20.70;99.90
15184;DHT22;7693;49.266;7.104;2023-09-19T13:00:04;20.70;99.90
15184;DHT22;7693;49.266;7.104;2023-09-19T13:02:37;20.60;99.90
15184;DHT22;7693;49.266;7.104;2023-09-19T13:05:03;20.60;99.90
15184;DHT22;7693;49.266;7.104;2023-09-19T13:07:45;20.50;99.90
15184;DHT22;7693;49.266;7.104;2023-09-19T13:10:12;20.40;99.90
15184;DHT22;7693;49.266;7.104;2023-09-19T13:12:42;20.40;99.90
15184;DHT22;7693;49.266;7.104;2023-09-19T13:15:13;20.40;99.90
15184;DHT22;7693;49.266;7.104;2023-09-19T13:17:45;20.40;99.90
15184;DHT22;7693;49.266;7.104;2023-09-19T13:20:24;20.40;99.90
15184;DHT22;7693;49.266;7.104;2023-09-19T13:22:53;20.50;99.90
15184;DHT22;7693;49.266;7.104;2023-09-19T13:25:21;20.60;99.90
15184;DHT22;7693;49.266;7.104;2023-09-19T13:27:49;20.60;99.90
15184;DHT22;7693;49.266;7.104;2023-09-19T13:30:17;20.70;99.90
15184;DHT22;7693;49.266;7.104;2023-09-19T13:32:44;20.80;99.90
15184;DHT22;7693;49.266;7.104;2023-09-19T13:35:10;20.90;99.90
15184;DHT22;7693;49.266;7.104;2023-09-19T13:37:38;20.90;99.90
15184;DHT22;7693;49.266;7.104;2023-09-19T13:40:07;20.70;99.90
15184;DHT22;7693;49.266;7.104;2023-09-19T13:42:33;20.60;99.90
15184;DHT22;7693;49.266;7.104;2023-09-19T13:44:59;20.60;99.90
15184;DHT22;7693;49.266;7.104;2023-09-19T13:47:24;20.60;99.90
15184;DHT22;7693;49.266;7.104;2023-09-19T13:49:52;20.60;99.90
15184;DHT22;7693;49.266;7.104;2023-09-19T13:52:19;20.50;99.90
15184;DHT22;7693;49.266;7.104;2023-09-19T13:54:44;20.50;99.90
15184;DHT22;7693;49.266;7.104;2023-09-19T13:57:10;20.60;99.90
15184;DHT22;7693;49.266;7.104;2023-09-19T13:59:36;20.50;99.90
15184;DHT22;7693;49.266;7.104;2023-09-19T14:02:01;20.50;99.90
15184;DHT22;7693;49.266;7.104;2023-09-19T14:04:31;20.50;99.90
15184;DHT22;7693;49.266;7.104;2023-09-19T14:06:57;20.60;99.90
15184;DHT22;7693;49.266;7.104;2023-09-19T14:09:23;20.70;99.90
15184;DHT22;7693;49.266;7.104;2023-09-19T14:11:50;20.70;99.90
15184;DHT22;7693;49.266;7.104;2023-09-19T14:14:21;20.70;99.90
15184;DHT22;7693;49.266;7.104;2023-09-19T14:16:49;20.70;99.90
15184;DHT22;7693;49.266;7.104;2023-09-19T14:19:15;20.70;99.90
15184;DHT22;7693;49.266;7.104;2023-09-19T14:21:42;20.60;99.90
15184;DHT22;7693;49.266;7.104;2023-09-19T14:24:08;20.60;99.90
15184;DHT22;7693;49.266;7.104;2023-09-19T14:26:41;20.60;99.90
15184;DHT22;7693;49.266;7.104;2023-09-19T14:29:06;20.60;99.90
15184;DHT22;7693;49.266;7.104;2023-09-19T14:31:33;20.60;99.90
15184;DHT22;7693;49.266;7.104;2023-09-19T14:33:59;20.60;99.90
15184;DHT22;7693;49.266;7.104;2023-09-19T14:36:25;20.60;99.90
15184;DHT22;7693;49.266;7.104;2023-09-19T14:38:56;20.60;99.90
15184;DHT22;7693;49.266;7.104;2023-09-19T14:41:23;20.60;99.90
15184;DHT22;7693;49.266;7.104;2023-09-19T14:43:51;20.70;99.90
15184;DHT22;7693;49.266;7.104;2023-09-19T14:46:17;20.80;99.90
15184;DHT22;7693;49.266;7.104;2023-09-19T14:48:45;20.90;99.90
15184;DHT22;7693;49.266;7.104;2023-09-19T14:51:14;20.90;99.90
15184;DHT22;7693;49.266;7.104;2023-09-19T14:53:40;20.90;99.90
15184;DHT22;7693;49.266;7.104;2023-09-19T14:56:09;20.80;99.90
15184;DHT22;7693;49.266;7.104;2023-09-19T14:58:36;20.80;99.90
15184;DHT22;7693;49.266;7.104;2023-09-19T15:01:08;20.70;99.90
15184;DHT22;7693;49.266;7.104;2023-09-19T15:03:36;20.70;99.90
15184;DHT22;7693;49.266;7.104;2023-09-19T15:06:06;20.70;99.90
15184;DHT22;7693;49.266;7.104;2023-09-19T15:08:32;20.70;99.90
15184;DHT22;7693;49.266;7.104;2023-09-19T15:11:06;20.90;99.90
15184;DHT22;7693;49.266;7.104;2023-09-19T15:13:33;21.10;99.90
15184;DHT22;7693;49.266;7.104;2023-09-19T15:16:03;21.30;99.90
15184;DHT22;7693;49.266;7.104;2023-09-19T15:18:30;21.30;99.90
15184;DHT22;7693;49.266;7.104;2023-09-19T15:21:05;21.40;99.90
15184;DHT22;7693;49.266;7.104;2023-09-19T15:23:32;21.30;99.90
15184;DHT22;7693;49.266;7.104;2023-09-19T15:26:00;21.10;99.90
15184;DHT22;7693;49.266;7.104;2023-09-19T15:28:27;21.00;99.90
15184;DHT22;7693;49.266;7.104;2023-09-19T15:31:05;20.90;99.90
15184;DHT22;7693;49.266;7.104;2023-09-19T15:33:31;20.80;99.90
15184;DHT22;7693;49.266;7.104;2023-09-19T15:38:32;20.70;99.90
15184;DHT22;7693;49.266;7.104;2023-09-19T15:41:19;20.70;99.90
15184;DHT22;7693;49.266;7.104;2023-09-19T15:43:46;20.60;99.90
15184;DHT22;7693;49.266;7.104;2023-09-19T15:46:11;20.50;99.90
15184;DHT22;7693;49.266;7.104;2023-09-19T15:48:37;20.50;99.90
15184;DHT22;7693;49.266;7.104;2023-09-19T15:51:03;20.40;99.90
15184;DHT22;7693;49.266;7.104;2023-09-19T15:56:10;20.40;99.90
15184;DHT22;7693;49.266;7.104;2023-09-19T15:58:37;20.50;99.90
15184;DHT22;7693;49.266;7.104;2023-09-19T16:01:08;20.50;99.90
15184;DHT22;7693;49.266;7.104;2023-09-19T16:03:35;20.50;99.90
15184;DHT22;7693;49.266;7.104;2023-09-19T16:06:02;20.50;99.90
15184;DHT22;7693;49.266;7.104;2023-09-19T16:08:32;20.50;99.90
15184;DHT22;7693;49.266;7.104;2023-09-19T16:10:59;20.40;99.90
15184;DHT22;7693;49.266;7.104;2023-09-19T16:13:25;20.30;99.90
15184;DHT22;7693;49.266;7.104;2023-09-19T16:15:51;20.40;99.90
15184;DHT22;7693;49.266;7.104;2023-09-19T16:18:17;20.40;99.90
15184;DHT22;7693;49.266;7.104;2023-09-19T16:20:43;20.40;99.90
15184;DHT22;7693;49.266;7.104;2023-09-19T16:23:08;20.40;99.90
15184;DHT22;7693;49.266;7.104;2023-09-19T16:25:34;20.40;99.90
15184;DHT22;7693;49.266;7.104;2023-09-19T16:27:59;20.30;99.90
15184;DHT22;7693;49.266;7.104;2023-09-19T16:30:25;20.30;99.90
15184;DHT22;7693;49.266;7.104;2023-09-19T16:32:51;20.30;99.90
15184;DHT22;7693;49.266;7.104;2023-09-19T16:35:16;20.20;99.90
15184;DHT22;7693;49.266;7.104;2023-09-19T16:37:42;20.20;99.90
15184;DHT22;7693;49.266;7.104;2023-09-19T16:40:08;20.20;99.90
15184;DHT22;7693;49.266;7.104;2023-09-19T16:42:34;20.10;99.90
15184;DHT22;7693;49.266;7.104;2023-09-19T16:44:59;20.00;99.90
15184;DHT22;7693;49.266;7.104;2023-09-19T16:47:25;20.00;99.90
15184;DHT22;7693;49.266;7.104;2023-09-19T16:49:50;19.90;99.90
15184;DHT22;7693;49.266;7.104;2023-09-19T16:52:18;19.80;99.90
15184;DHT22;7693;49.266;7.104;2023-09-19T16:54:43;19.80;99.90
15184;DHT22;7693;49.266;7.104;2023-09-19T16:57:09;19.80;99.90
15184;DHT22;7693;49.266;7.104;2023-09-19T16:59:34;19.70;99.90
15184;DHT22;7693;49.266;7.104;2023-09-19T17:02:00;19.70;99.90
15184;DHT22;7693;49.266;7.104;2023-09-19T17:04:26;19.70;99.90
15184;DHT22;7693;49.266;7.104;2023-09-19T17:06:52;19.70;99.90
15184;DHT22;7693;49.266;7.104;2023-09-19T17:09:18;19.60;99.90
15184;DHT22;7693;49.266;7.104;2023-09-19T17:11:43;19.60;99.90
15184;DHT22;7693;49.266;7.104;2023-09-19T17:14:11;19.50;99.90
15184;DHT22;7693;49.266;7.104;2023-09-19T17:16:37;19.50;99.90
15184;DHT22;7693;49.266;7.104;2023-09-19T17:19:02;19.50;99.90
15184;DHT22;7693;49.266;7.104;2023-09-19T17:21:30;19.40;99.90
15184;DHT22;7693;49.266;7.104;2023-09-19T17:23:56;19.40;99.90
15184;DHT22;7693;49.266;7.104;2023-09-19T17:26:24;19.40;99.90
15184;DHT22;7693;49.266;7.104;2023-09-19T17:28:52;19.40;99.90
15184;DHT22;7693;49.266;7.104;2023-09-19T17:31:19;19.30;99.90
15184;DHT22;7693;49.266;7.104;2023-09-19T17:33:47;19.30;99.90
15184;DHT22;7693;49.266;7.104;2023-09-19T17:36:18;19.20;99.90
15184;DHT22;7693;49.266;7.104;2023-09-19T17:38:45;19.20;99.90
15184;DHT22;7693;49.266;7.104;2023-09-19T17:41:12;19.10;99.90
15184;DHT22;7693;49.266;7.104;2023-09-19T17:43:41;19.10;99.90
15184;DHT22;7693;49.266;7.104;2023-09-19T17:46:08;19.10;99.90
15184;DHT22;7693;49.266;7.104;2023-09-19T17:48:38;19.00;99.90
15184;DHT22;7693;49.266;7.104;2023-09-19T17:51:07;19.00;99.90
15184;DHT22;7693;49.266;7.104;2023-09-19T17:53:35;18.90;99.90
15184;DHT22;7693;49.266;7.104;2023-09-19T17:56:02;18.90;99.90
15184;DHT22;7693;49.266;7.104;2023-09-19T17:58:29;18.80;99.90
15184;DHT22;7693;49.266;7.104;2023-09-19T18:00:55;18.80;99.90
15184;DHT22;7693;49.266;7.104;2023-09-19T18:03:22;18.70;99.90
15184;DHT22;7693;49.266;7.104;2023-09-19T18:05:51;18.70;99.90
15184;DHT22;7693;49.266;7.104;2023-09-19T18:08:19;18.70;99.90
15184;DHT22;7693;49.266;7.104;2023-09-19T18:10:47;18.60;99.90
15184;DHT22;7693;49.266;7.104;2023-09-19T18:13:13;18.50;99.90
15184;DHT22;7693;49.266;7.104;2023-09-19T18:15:38;18.50;99.90
15184;DHT22;7693;49.266;7.104;2023-09-19T18:18:05;18.50;99.90
15184;DHT22;7693;49.266;7.104;2023-09-19T18:20:36;18.50;99.90
15184;DHT22;7693;49.266;7.104;2023-09-19T18:23:03;18.40;99.90
15184;DHT22;7693;49.266;7.104;2023-09-19T18:25:30;18.40;99.90
15184;DHT22;7693;49.266;7.104;2023-09-19T18:27:56;18.40;99.90
15184;DHT22;7693;49.266;7.104;2023-09-19T18:30:21;18.30;99.90
15184;DHT22;7693;49.266;7.104;2023-09-19T18:32:47;18.30;99.90
15184;DHT22;7693;49.266;7.104;2023-09-19T18:35:15;18.30;99.90
15184;DHT22;7693;49.266;7.104;2023-09-19T18:37:41;18.30;99.90
15184;DHT22;7693;49.266;7.104;2023-09-19T18:40:08;18.30;99.90
15184;DHT22;7693;49.266;7.104;2023-09-19T18:42:36;18.30;99.90
15184;DHT22;7693;49.266;7.104;2023-09-19T18:45:02;18.20;99.90
15184;DHT22;7693;49.266;7.104;2023-09-19T18:47:29;18.20;99.90
15184;DHT22;7693;49.266;7.104;2023-09-19T18:49:55;18.20;99.90
15184;DHT22;7693;49.266;7.104;2023-09-19T18:52:24;18.20;99.90
15184;DHT22;7693;49.266;7.104;2023-09-19T18:54:50;18.20;99.90
15184;DHT22;7693;49.266;7.104;2023-09-19T18:57:16;18.20;99.90
15184;DHT22;7693;49.266;7.104;2023-09-19T18:59:41;18.10;99.90
15184;DHT22;7693;49.266;7.104;2023-09-19T19:02:07;18.10;99.90
15184;DHT22;7693;49.266;7.104;2023-09-19T19:04:35;18.00;99.90
15184;DHT22;7693;49.266;7.104;2023-09-19T19:07:07;18.00;99.90
15184;DHT22;7693;49.266;7.104;2023-09-19T19:09:37;18.10;99.90
15184;DHT22;7693;49.266;7.104;2023-09-19T19:12:03;18.00;99.90
15184;DHT22;7693;49.266;7.104;2023-09-19T19:14:29;18.00;99.90
15184;DHT22;7693;49.266;7.104;2023-09-19T19:16:54;18.00;99.90
15184;DHT22;7693;49.266;7.104;2023-09-19T19:19:20;18.00;99.90
15184;DHT22;7693;49.266;7.104;2023-09-19T19:21:45;18.00;99.90
15184;DHT22;7693;49.266;7.104;2023-09-19T19:24:11;18.00;99.90
15184;DHT22;7693;49.266;7.104;2023-09-19T19:26:38;18.00;99.90
15184;DHT22;7693;49.266;7.104;2023-09-19T19:29:04;18.00;99.90
15184;DHT22;7693;49.266;7.104;2023-09-19T19:31:29;17.90;99.90
15184;DHT22;7693;49.266;7.104;2023-09-19T19:33:58;17.90;99.90
15184;DHT22;7693;49.266;7.104;2023-09-19T19:36:24;17.90;99.90
15184;DHT22;7693;49.266;7.104;2023-09-19T19:38:51;17.90;99.90
15184;DHT22;7693;49.266;7.104;2023-09-19T19:41:17;17.90;99.90
15184;DHT22;7693;49.266;7.104;2023-09-19T19:43:43;17.80;99.90
15184;DHT22;7693;49.266;7.104;2023-09-19T19:46:09;17.80;99.90
15184;DHT22;7693;49.266;7.104;2023-09-19T19:48:36;17.80;99.90
15184;DHT22;7693;49.266;7.104;2023-09-19T19:51:05;17.80;99.90
15184;DHT22;7693;49.266;7.104;2023-09-19T19:53:35;17.80;99.90
15184;DHT22;7693;49.266;7.104;2023-09-19T19:56:01;17.80;99.90
15184;DHT22;7693;49.266;7.104;2023-09-19T19:58:28;17.80;99.90
15184;DHT22;7693;49.266;7.104;2023-09-19T20:00:56;17.80;99.90
15184;DHT22;7693;49.266;7.104;2023-09-19T20:03:21;17.80;99.90
15184;DHT22;7693;49.266;7.104;2023-09-19T20:05:48;17.80;99.90
15184;DHT22;7693;49.266;7.104;2023-09-19T20:08:14;17.80;99.90
15184;DHT22;7693;49.266;7.104;2023-09-19T20:10:40;17.80;99.90
15184;DHT22;7693;49.266;7.104;2023-09-19T20:13:06;17.80;99.90
15184;DHT22;7693;49.266;7.104;2023-09-19T20:15:34;17.80;99.90
15184;DHT22;7693;49.266;7.104;2023-09-19T20:18:01;17.80;99.90
15184;DHT22;7693;49.266;7.104;2023-09-19T20:20:28;17.70;99.90
15184;DHT22;7693;49.266;7.104;2023-09-19T20:22:54;17.70;99.90
15184;DHT22;7693;49.266;7.104;2023-09-19T20:25:20;17.60;99.90
15184;DHT22;7693;49.266;7.104;2023-09-19T20:27:46;17.60;99.90
15184;DHT22;7693;49.266;7.104;2023-09-19T20:30:15;17.60;99.90
15184;DHT22;7693;49.266;7.104;2023-09-19T20:32:42;17.60;99.90
15184;DHT22;7693;49.266;7.104;2023-09-19T20:35:09;17.50;99.90
15184;DHT22;7693;49.266;7.104;2023-09-19T20:37:36;17.50;99.90
15184;DHT22;7693;49.266;7.104;2023-09-19T20:40:06;17.50;99.90
15184;DHT22;7693;49.266;7.104;2023-09-19T20:42:36;17.40;99.90
15184;DHT22;7693;49.266;7.104;2023-09-19T20:45:02;17.40;99.90
15184;DHT22;7693;49.266;7.104;2023-09-19T20:47:27;17.30;99.90
15184;DHT22;7693;49.266;7.104;2023-09-19T20:49:53;17.30;99.90
15184;DHT22;7693;49.266;7.104;2023-09-19T20:52:18;17.30;99.90
15184;DHT22;7693;49.266;7.104;2023-09-19T20:54:44;17.30;99.90
15184;DHT22;7693;49.266;7.104;2023-09-19T20:57:12;17.20;99.90
15184;DHT22;7693;49.266;7.104;2023-09-19T20:59:39;17.20;99.90
15184;DHT22;7693;49.266;7.104;2023-09-19T21:02:05;17.10;99.90
15184;DHT22;7693;49.266;7.104;2023-09-19T21:04:31;17.10;99.90
15184;DHT22;7693;49.266;7.104;2023-09-19T21:06:57;17.10;99.90
15184;DHT22;7693;49.266;7.104;2023-09-19T21:09:23;17.10;99.90
15184;DHT22;7693;49.266;7.104;2023-09-19T21:11:48;17.10;99.90
15184;DHT22;7693;49.266;7.104;2023-09-19T21:14:14;17.10;99.90
15184;DHT22;7693;49.266;7.104;2023-09-19T21:16:40;17.10;99.90
15184;DHT22;7693;49.266;7.104;2023-09-19T21:19:06;17.10;99.90
15184;DHT22;7693;49.266;7.104;2023-09-19T21:21:34;17.10;99.90
15184;DHT22;7693;49.266;7.104;2023-09-19T21:24:00;17.10;99.90
15184;DHT22;7693;49.266;7.104;2023-09-19T21:26:26;17.10;99.90
15184;DHT22;7693;49.266;7.104;2023-09-19T21:28:52;17.00;99.90
15184;DHT22;7693;49.266;7.104;2023-09-19T21:31:17;17.00;99.90
15184;DHT22;7693;49.266;7.104;2023-09-19T21:33:43;17.00;99.90
15184;DHT22;7693;49.266;7.104;2023-09-19T21:36:11;17.00;99.90
15184;DHT22;7693;49.266;7.104;2023-09-19T21:38:45;17.00;99.90
15184;DHT22;7693;49.266;7.104;2023-09-19T21:41:16;17.10;99.90
15184;DHT22;7693;49.266;7.104;2023-09-19T21:43:43;17.10;99.90
15184;DHT22;7693;49.266;7.104;2023-09-19T21:46:09;17.10;99.90
15184;DHT22;7693;49.266;7.104;2023-09-19T21:48:35;17.10;99.90
15184;DHT22;7693;49.266;7.104;2023-09-19T21:51:00;17.10;99.90
15184;DHT22;7693;49.266;7.104;2023-09-19T21:53:26;17.10;99.90
15184;DHT22;7693;49.266;7.104;2023-09-19T21:55:58;17.20;99.90
15184;DHT22;7693;49.266;7.104;2023-09-19T21:58:28;17.20;99.90
15184;DHT22;7693;49.266;7.104;2023-09-19T22:00:55;17.20;99.90
15184;DHT22;7693;49.266;7.104;2023-09-19T22:03:21;17.20;99.90
15184;DHT22;7693;49.266;7.104;2023-09-19T22:05:48;17.20;99.90
15184;DHT22;7693;49.266;7.104;2023-09-19T22:08:14;17.20;99.90
15184;DHT22;7693;49.266;7.104;2023-09-19T22:13:05;17.20;99.90
15184;DHT22;7693;49.266;7.104;2023-09-19T22:15:34;17.20;99.90
15184;DHT22;7693;49.266;7.104;2023-09-19T22:17:59;17.20;99.90
15184;DHT22;7693;49.266;7.104;2023-09-19T22:20:25;17.20;99.90
15184;DHT22;7693;49.266;7.104;2023-09-19T22:22:55;17.20;99.90
15184;DHT22;7693;49.266;7.104;2023-09-19T22:25:23;17.20;99.90
15184;DHT22;7693;49.266;7.104;2023-09-19T22:27:50;17.20;99.90
15184;DHT22;7693;49.266;7.104;2023-09-19T22:30:17;17.20;99.90
15184;DHT22;7693;49.266;7.104;2023-09-19T22:32:45;17.20;99.90
15184;DHT22;7693;49.266;7.104;2023-09-19T22:35:10;17.20;99.90
